Have a Safe July 4th! 

Flight Track Log - Related Links

Times and Time Zones

All times are in EDT time to prevent confusion due to time zone crossing. See the AWE1932 flight status page for this flight to view local times or setup timezone preferences in your user account.

Time Position Orientation Groundspeed Altitude Reporting Facility
EDT Latitude Longitude Course Direction KTS MPH feet Rate Location/Type
Wed 06:36:48 AM 26.6158 -81.7058 344° North 165 190 3,100  Level Miami Center
Wed 06:37:46 AM 26.6908 -81.7133 355° North 222 255 5,500 2,593 Climbing Miami Center
Wed 06:38:46 AM 26.7700 -81.7214 355° North 248 285 8,200 2,850 Climbing Miami Center
Wed 06:39:46 AM 26.8511 -81.7294 355° North 274 315 11,200 2,000 Climbing Miami Center
Wed 06:40:00 AM 27.2041 -81.8014 343° North  Level FlightAware Approximate
Wed 06:40:46 AM 26.9281 -81.6767 31° Northeast 291 335 12,200  Level Miami Center
Wed 06:41:00 AM 27.3119 -81.8414 340° North  Level FlightAware Approximate
Wed 06:41:46 AM 27.0108 -81.5731 48° Northeast 363 418 14,700  Level Miami Center
Wed 06:42:00 AM 27.4205 -81.8790 344° North  Level FlightAware Approximate
Wed 06:42:46 AM 27.0781 -81.4894 48° Northeast 375 432 16,200  Level Miami Center
Wed 06:43:46 AM 27.1692 -81.3811 47° Northeast 399 459 18,300 1,800 Climbing Miami Center
Wed 06:44:46 AM 27.2389 -81.2928 48° Northeast 418 481 19,800 1,600 Climbing Miami Center
Wed 06:45:46 AM 27.3197 -81.1672 54° Northeast 439 505 21,500 1,650 Climbing Miami Center
Wed 06:46:46 AM 27.3881 -81.0436 58° Northeast 449 517 23,100 1,500 Climbing Miami Center
Wed 06:47:46 AM 27.4625 -80.9200 56° Northeast 458 527 24,500 1,350 Climbing Miami Center
Wed 06:48:46 AM 27.5369 -80.7983 55° Northeast 465 535 25,800 1,100 Climbing Miami Center
Wed 06:49:46 AM 27.6067 -80.6908 54° Northeast 470 541 26,700 950 Climbing Miami Center
Wed 06:50:46 AM 27.7056 -80.5792 45° Northeast 482 555 27,700 950 Climbing Miami Center
Wed 06:51:46 AM 27.8022 -80.4694 45° Northeast 482 555 28,600 900 Climbing Miami Center
Wed 06:52:46 AM 27.8989 -80.3597 45° Northeast 493 567 29,500 950 Climbing Miami Center
Wed 06:53:46 AM 28.0219 -80.2861 28° Northeast 487 560 30,500 1,050 Climbing Miami Center
Wed 06:54:46 AM 28.1631 -80.2292 20° North 482 555 31,600 1,150 Climbing Miami Center
Wed 06:55:46 AM 28.2894 -80.1764 20° North 487 560 32,800 1,050 Climbing Miami Center
Wed 06:56:46 AM 28.4158 -80.1281 19° North 487 560 33,700 750 Climbing Miami Center
Wed 06:57:46 AM 28.5317 -80.0794 20° North 487 560 34,300 650 Climbing Miami Center
Wed 06:58:46 AM 28.6622 -80.0267 20° North 492 566 35,000 350 Climbing Miami Center
Wed 06:59:46 AM 28.7883 -79.9781 19° North 486 559 35,000  Level Miami Center
Wed 07:00:46 AM 28.9169 -79.9247 20° North 492 566 35,000 -50 Level Miami Center
Wed 07:01:46 AM 29.0431 -79.8736 20° North 487 560 34,900 -50 Descending Miami Center
Wed 07:02:46 AM 29.1694 -79.8225 19° North 487 560 34,900  Level Miami Center
Wed 07:03:46 AM 29.2975 -79.7736 18° North 487 560 34,900 50 Level Miami Center
Wed 07:04:46 AM 29.4217 -79.7197 21° North 481 554 35,000 29 Climbing Miami Center
Wed 07:07:14 AM 29.7497 -79.5794 20° North 479 551 35,000  Level Jacksonville Center
Wed 07:08:14 AM 29.8756 -79.5250 21° North 479 551 35,000  Level Jacksonville Center
Wed 07:09:14 AM 30.0036 -79.4725 20° North 479 551 35,000  Level Jacksonville Center
Wed 07:10:14 AM 30.1317 -79.4200 20° North 479 551 35,000  Level Jacksonville Center
Wed 07:11:14 AM 30.2553 -79.3650 21° North 479 551 35,000  Level Jacksonville Center
Wed 07:12:14 AM 30.3747 -79.3100 22° Northeast 479 551 35,000  Level Jacksonville Center
Wed 07:13:14 AM 30.5089 -79.2544 20° North 485 558 35,000  Level Jacksonville Center
Wed 07:14:14 AM 30.6283 -79.1942 23° Northeast 485 558 35,000  Level Jacksonville Center
Wed 07:15:14 AM 30.7644 -79.1358 20° North 485 558 35,000  Level Jacksonville Center
Wed 07:16:14 AM 30.8878 -79.0775 22° Northeast 486 559 35,000  Level Jacksonville Center
Wed 07:17:14 AM 31.0114 -79.0194 22° Northeast 480 552 35,000 -50 Level Jacksonville Center
Wed 07:18:14 AM 31.1247 -78.9686 21° North 480 552 34,900 -50 Descending Jacksonville Center
Wed 07:19:14 AM 31.2483 -78.9147 20° North 480 552 34,900 50 Level Jacksonville Center
Wed 07:20:14 AM 31.3756 -78.8533 22° Northeast 485 558 35,000 50 Climbing Jacksonville Center
Wed 07:21:14 AM 31.5011 -78.7969 21° North 485 558 35,000  Level Jacksonville Center
Wed 07:22:14 AM 31.6267 -78.7353 23° Northeast 485 558 35,000  Level Jacksonville Center
Wed 07:23:14 AM 31.7539 -78.6758 22° Northeast 485 558 35,000  Level Jacksonville Center
Wed 07:24:14 AM 31.8756 -78.6236 20° North 479 551 35,000 -50 Level Jacksonville Center
Wed 07:25:14 AM 32.0047 -78.5589 23° Northeast 484 557 34,900 -50 Descending Jacksonville Center
Wed 07:26:14 AM 32.1278 -78.4992 22° Northeast 484 557 34,900 50 Level Jacksonville Center
Wed 07:27:14 AM 32.2553 -78.4414 21° North 484 557 35,000 50 Climbing Jacksonville Center
Wed 07:28:14 AM 32.3803 -78.3739 25° Northeast 484 557 35,000  Level Jacksonville Center
Wed 07:29:14 AM 32.5075 -78.3133 22° Northeast 484 557 35,000  Level Jacksonville Center
Wed 07:30:14 AM 32.6367 -78.2525 22° Northeast 489 563 35,000 -50 Level Jacksonville Center
Wed 07:31:14 AM 32.7619 -78.1919 22° Northeast 484 557 34,900  Descending Jacksonville Center
Wed 07:32:14 AM 32.8789 -78.1386 21° North 494 568 35,000 50 Climbing Jacksonville Center
Wed 07:33:14 AM 33.0322 -78.0614 23° Northeast 500 575 35,000  Level Jacksonville Center
Wed 07:34:14 AM 33.1594 -77.9997 22° Northeast 495 570 35,000 -37 Level Jacksonville Center
Wed 07:35:55 AM 33.3631 -77.9014 22° Northeast 468 539 34,900 -37 Descending Washington Center
Wed 07:36:55 AM 33.4894 -77.8425 21° North 462 532 34,900 51 Level Washington Center
Wed 07:37:53 AM 33.6178 -77.7811 22° Northeast 475 547 35,000 50 Climbing Washington Center
Wed 07:38:54 AM 33.7442 -77.7147 24° Northeast 481 554 35,000  Level Washington Center
Wed 07:39:54 AM 33.8725 -77.6503 23° Northeast 487 560 35,000  Level Washington Center
Wed 07:40:54 AM 34.0028 -77.5886 21° North 492 566 35,000  Level Washington Center
Wed 07:41:55 AM 34.1206 -77.5311 22° Northeast 504 580 35,000  Level Washington Center
Wed 07:42:55 AM 34.2469 -77.4689 22° Northeast 498 573 35,000  Level Washington Center
Wed 07:43:53 AM 34.3750 -77.4064 22° Northeast 498 573 35,000 -153 Level Washington Center
Wed 07:44:53 AM 34.5033 -77.3436 22° Northeast 493 567 34,700 -650 Descending Washington Center
Wed 07:45:53 AM 34.6294 -77.2806 22° Northeast 493 567 33,700 -843 Descending Washington Center
Wed 07:46:54 AM 34.7617 -77.2125 23° Northeast 498 573 33,000 -350 Descending Washington Center
Wed 07:47:53 AM 34.8858 -77.1467 24° Northeast 498 573 33,000  Level Washington Center
Wed 07:48:54 AM 35.0181 -77.0833 21° North 498 573 33,000 49 Level Washington Center
Wed 07:49:55 AM 35.1439 -77.0144 24° Northeast 498 573 33,100 50 Climbing Washington Center
Wed 07:50:55 AM 35.2742 -76.9456 23° Northeast 498 573 33,100  Level Washington Center
Wed 07:51:53 AM 35.4022 -76.8814 22° Northeast 498 573 33,100 -50 Level Washington Center
Wed 07:52:54 AM 35.5258 -76.8197 22° Northeast 493 567 33,000 -99 Descending Washington Center
Wed 07:53:54 AM 35.6497 -76.7525 24° Northeast 485 558 32,900 -50 Descending Washington Center
Wed 07:54:55 AM 35.7733 -76.6903 22° Northeast 480 552 32,900  Level Washington Center
Wed 07:55:55 AM 35.8969 -76.6253 23° Northeast 480 552 32,900 50 Level Washington Center
Wed 07:56:55 AM 36.0206 -76.5603 23° Northeast 480 552 33,000 -153 Climbing Washington Center
Wed 07:57:53 AM 36.1464 -76.4947 23° Northeast 480 552 32,600 -718 Descending Washington Center
Wed 07:58:52 AM 36.2742 -76.4294 22° Northeast 480 552 31,600 -1,000 Descending Washington Center
Wed 07:59:53 AM 36.4019 -76.3636 23° Northeast 485 558 30,600 -984 Descending Washington Center
Wed 08:00:54 AM 36.5294 -76.2950 23° Northeast 496 571 29,600 -793 Descending Washington Center
Wed 08:01:54 AM 36.6550 -76.2289 23° Northeast 496 571 29,000 -298 Descending Washington Center
Wed 08:02:55 AM 36.7764 -76.1597 25° Northeast 478 550 29,000  Level Washington Center
Wed 08:03:52 AM 36.8997 -76.0931 23° Northeast 478 550 29,000  Level Washington Center
Wed 08:04:53 AM 37.0397 -76.0239 22° Northeast 485 558 29,000  Level Washington Center
Wed 08:05:53 AM 37.1631 -75.9567 23° Northeast 485 558 29,000  Level Washington Center
Wed 08:06:54 AM 37.2864 -75.8894 23° Northeast 485 558 29,000  Level Washington Center
Wed 08:07:55 AM 37.4094 -75.8244 23° Northeast 480 552 29,000  Level Washington Center
Wed 08:08:55 AM 37.5328 -75.7567 24° Northeast 480 552 29,000  Level Washington Center
Wed 08:09:53 AM 37.6558 -75.6942 22° Northeast 480 552 29,000 -254 Level Washington Center
Wed 08:10:53 AM 37.7769 -75.6233 25° Northeast 475 547 28,500 -694 Descending Washington Center
Wed 08:11:54 AM 37.9019 -75.5575 23° Northeast 475 547 27,600 -934 Descending Washington Center
Wed 08:12:55 AM 38.0208 -75.4889 24° Northeast 475 547 26,600 -1,000 Descending Washington Center
Wed 08:13:54 AM 38.1397 -75.4203 24° Northeast 475 547 25,600 -1,350 Descending Washington Center
Wed 08:14:55 AM 38.2583 -75.3483 25° Northeast 470 541 23,900 -1,714 Descending Washington Center
Wed 08:15:53 AM 38.3561 -75.2767 30° Northeast 463 533 22,200 -1,850 Descending Washington Center
Wed 08:16:55 AM 38.4664 -75.2097 25° Northeast 445 512 20,200 -1,918 Descending Washington Center
Wed 08:17:55 AM 38.5706 -75.1428 27° Northeast 426 490 18,300 -1,650 Descending Washington Center
Wed 08:18:55 AM 38.6744 -75.0758 27° Northeast 415 478 16,900 -1,576 Descending Washington Center
Wed 08:19:53 AM 38.7700 -75.0111 28° Northeast 401 461 15,200 -966 Descending Washington Center
Wed 08:20:53 AM 38.8594 -74.9572 25° Northeast 370 426 15,000 -836 Descending Washington Center
Wed 08:21:55 AM 38.9403 -74.9003 29° Northeast 344 396 13,500 -1,574 Descending Washington Center
Wed 08:22:55 AM 39.0236 -74.8514 24° Northeast 326 375 11,800 -1,412 Descending Washington Center
Wed 08:23:54 AM 39.1025 -74.8053 24° Northeast 315 362 10,700 -1,057 Descending Washington Center
Wed 08:25:34 AM 39.2500 -74.8667 342° North 315 362 9,000 -638 Descending Philadelphia TRACON
Wed 08:26:34 AM 39.3333 -74.9000 343° North 312 359 9,000 -286 Level Philadelphia TRACON
Wed 08:27:40 AM 39.4000 -74.9833 316° Northwest 316 364 8,400 -857 Descending Philadelphia TRACON
Wed 08:28:40 AM 39.4667 -75.0667 316° Northwest 296 341 7,200 -1,200 Descending Philadelphia TRACON
Wed 08:29:40 AM 39.5167 -75.1333 314° West 295 339 6,000 -600 Descending Philadelphia TRACON
Wed 08:30:40 AM 39.5833 -75.2000 322° Northwest 295 339 6,000  Level Philadelphia TRACON
Wed 08:31:40 AM 39.6500 -75.2833 316° Northwest 295 339 6,000  Level Philadelphia TRACON
Wed 08:32:40 AM 39.6667 -75.3667 285° West 242 278 6,000  Level Philadelphia TRACON
Wed 08:33:46 AM 39.6833 -75.4500 285° West 216 249 6,000 -429 Level Philadelphia TRACON
Wed 08:34:46 AM 39.7000 -75.5167 288° West 195 224 5,100 -476 Descending Philadelphia TRACON
Wed 08:35:52 AM 39.7000 -75.6000 270° West 185 213 5,000 -190 Descending Philadelphia TRACON
Wed 08:36:52 AM 39.7500 -75.6167 346° North 195 224 4,700 -579 Descending Philadelphia TRACON
Wed 08:37:46 AM 39.7833 -75.5833 38° Northeast 183 211 3,900 -737 Descending Philadelphia TRACON
Wed 08:38:46 AM 39.8167 -75.5333 49° Northeast 162 186 3,300 -450 Descending Philadelphia TRACON
Wed 08:39:46 AM 39.8167 -75.4833 90° East 162 186 3,000 -500 Descending Philadelphia TRACON
Wed 08:40:46 AM 39.8333 -75.4333 67° East 166 191 2,300 -700 Descending Philadelphia TRACON

Login

Don't have an account? Register now (free) for customized features, flight alerts, and more!